createdAt,value
2019-04-05T00:02:37.000Z,17.78
2019-04-05T00:12:37.000Z,17.75
2019-04-05T00:22:37.000Z,17.745
2019-04-05T00:32:37.000Z,17.73
2019-04-05T00:52:37.000Z,17.74
2019-04-05T01:02:39.000Z,17.73
2019-04-05T01:22:37.000Z,17.73
2019-04-05T01:32:39.000Z,17.72
2019-04-05T01:42:40.000Z,17.7
2019-04-05T01:52:37.000Z,17.7
2019-04-05T02:02:37.000Z,17.7
2019-04-05T02:12:37.000Z,17.67
2019-04-05T02:22:37.000Z,17.67
2019-04-05T02:32:37.000Z,17.67
2019-04-05T02:42:37.000Z,17.68
2019-04-05T02:52:37.000Z,17.68
2019-04-05T03:02:37.000Z,17.65
2019-04-05T03:12:38.000Z,17.63
2019-04-05T03:22:37.000Z,17.64
2019-04-05T03:32:37.000Z,17.62
2019-04-05T03:42:39.000Z,17.63
2019-04-05T03:52:37.000Z,17.61
2019-04-05T04:02:38.000Z,17.63
2019-04-05T04:12:37.000Z,17.62
2019-04-05T04:22:38.000Z,17.61
2019-04-05T04:32:39.000Z,17.62
2019-04-05T04:42:38.000Z,17.61
2019-04-05T04:52:38.000Z,17.6
2019-04-05T05:02:38.000Z,17.59
2019-04-05T05:22:38.000Z,17.61
2019-04-05T05:32:38.000Z,17.61
2019-04-05T05:42:38.000Z,17.61
2019-04-05T05:52:38.000Z,17.59
2019-04-05T06:02:38.000Z,17.6
2019-04-05T06:12:38.000Z,17.61
2019-04-05T06:22:38.000Z,17.61
2019-04-05T06:32:38.000Z,17.6
2019-04-05T06:42:38.000Z,17.63
2019-04-05T06:52:38.000Z,17.64
2019-04-05T07:02:38.000Z,17.66
2019-04-05T07:12:39.000Z,17.68
2019-04-05T07:22:38.000Z,17.68
2019-04-05T07:32:38.000Z,17.71
2019-04-05T07:42:38.000Z,17.71
2019-04-05T07:52:38.000Z,17.74
2019-04-05T08:02:38.000Z,17.75
2019-04-05T08:12:38.000Z,17.79
2019-04-05T08:22:38.000Z,17.8
2019-04-05T08:32:38.000Z,17.82
2019-04-05T08:42:38.000Z,17.84
2019-04-05T08:52:38.000Z,17.84
2019-04-05T09:02:42.000Z,17.84
2019-04-05T09:12:38.000Z,17.86
2019-04-05T09:22:38.000Z,17.88
2019-04-05T09:32:38.000Z,17.89
2019-04-05T09:42:39.000Z,17.9
2019-04-05T09:52:38.000Z,17.91
2019-04-05T10:02:38.000Z,17.9
2019-04-05T10:12:38.000Z,17.93
2019-04-05T10:22:38.000Z,17.94
2019-04-05T10:32:39.000Z,17.97
2019-04-05T10:42:38.000Z,17.98
2019-04-05T10:52:38.000Z,17.98
2019-04-05T11:02:38.000Z,17.99
2019-04-05T11:12:38.000Z,18
2019-04-05T11:22:38.000Z,18.01
2019-04-05T11:32:41.000Z,18.03
2019-04-05T11:42:38.000Z,18.04
2019-04-05T12:02:38.000Z,18.07
2019-04-05T12:12:41.000Z,18.09
2019-04-05T12:32:38.000Z,18.09
2019-04-05T12:42:38.000Z,18.07
2019-04-05T12:52:39.000Z,18.08
2019-04-05T13:02:39.000Z,18.09
2019-04-05T13:12:39.000Z,18.08
2019-04-05T13:22:39.000Z,18.12
2019-04-05T13:32:39.000Z,18.11
2019-04-05T13:42:39.000Z,18.12
2019-04-05T13:52:39.000Z,18.12
2019-04-05T14:02:39.000Z,18.14
2019-04-05T14:12:39.000Z,18.13
2019-04-05T14:22:39.000Z,18.17
2019-04-05T14:32:40.000Z,18.18
2019-04-05T14:42:39.000Z,18.16
2019-04-05T14:52:39.000Z,18.14
2019-04-05T15:02:39.000Z,18.14
2019-04-05T15:12:40.000Z,18.15
2019-04-05T15:22:39.000Z,18.18
2019-04-05T15:32:39.000Z,18.15
2019-04-05T15:42:39.000Z,18.13
2019-04-05T15:52:39.000Z,18.15
2019-04-05T16:02:41.000Z,18.14
2019-04-05T16:12:39.000Z,18.15
2019-04-05T16:22:39.000Z,18.17
2019-04-05T16:32:39.000Z,18.15
2019-04-05T16:42:39.000Z,18.15
2019-04-05T16:52:39.000Z,18.15
2019-04-05T17:02:40.000Z,18.13
2019-04-05T17:12:39.000Z,18.13
2019-04-05T17:22:39.000Z,18.14
2019-04-05T17:32:39.000Z,18.14
2019-04-05T17:42:39.000Z,18.13
2019-04-05T17:52:40.000Z,18.12
2019-04-05T18:02:39.000Z,18.12
2019-04-05T18:12:43.000Z,18.12
2019-04-05T18:22:39.000Z,18.13
2019-04-05T18:32:39.000Z,18.12
2019-04-05T18:42:39.000Z,18.14
2019-04-05T18:52:39.000Z,18.11
2019-04-05T19:02:39.000Z,18.1
2019-04-05T19:12:41.000Z,18.12
2019-04-05T19:22:40.000Z,18.12
2019-04-05T19:52:39.000Z,18.12
2019-04-05T20:02:40.000Z,18.1
2019-04-05T20:12:42.000Z,18.11
2019-04-05T20:32:39.000Z,18.12
2019-04-05T20:42:39.000Z,18.1
2019-04-05T21:02:39.000Z,18.13
2019-04-05T21:12:40.000Z,18.11
2019-04-05T21:22:40.000Z,18.1
2019-04-05T21:32:40.000Z,18.1
2019-04-05T21:42:40.000Z,18.11
2019-04-05T21:52:40.000Z,18.09
2019-04-05T22:02:42.000Z,18.09
2019-04-05T22:12:40.000Z,18.07
2019-04-05T22:22:40.000Z,18.07
2019-04-05T22:32:40.000Z,18.08
2019-04-05T22:42:40.000Z,18.07
2019-04-05T22:52:41.000Z,18.05
2019-04-05T23:02:41.000Z,18.07
2019-04-05T23:12:40.000Z,18.04
2019-04-05T23:22:41.000Z,18.05
2019-04-05T23:42:40.000Z,18.06
2019-04-05T23:52:40.000Z,18.04
